sensor_id;sensor_type;location;lat;lon;timestamp;temperature;humidity
52765;DHT22;38650;44.536;18.664;2023-04-25T00:02:12;14.90;99.90
52765;DHT22;38650;44.536;18.664;2023-04-25T00:04:38;15.00;99.90
52765;DHT22;38650;44.536;18.664;2023-04-25T00:07:04;15.10;99.90
52765;DHT22;38650;44.536;18.664;2023-04-25T00:09:30;15.20;99.90
52765;DHT22;38650;44.536;18.664;2023-04-25T00:11:55;15.20;99.90
52765;DHT22;38650;44.536;18.664;2023-04-25T00:14:21;15.30;99.90
52765;DHT22;38650;44.536;18.664;2023-04-25T00:16:46;15.30;99.90
52765;DHT22;38650;44.536;18.664;2023-04-25T00:19:13;15.30;99.90
52765;DHT22;38650;44.536;18.664;2023-04-25T00:21:39;15.30;99.90
52765;DHT22;38650;44.536;18.664;2023-04-25T00:24:06;15.20;99.90
52765;DHT22;38650;44.536;18.664;2023-04-25T00:26:33;15.20;99.90
52765;DHT22;38650;44.536;18.664;2023-04-25T00:28:58;15.20;99.90
52765;DHT22;38650;44.536;18.664;2023-04-25T00:31:24;15.20;99.90
52765;DHT22;38650;44.536;18.664;2023-04-25T00:33:49;15.20;99.90
52765;DHT22;38650;44.536;18.664;2023-04-25T00:36:15;15.30;99.90
52765;DHT22;38650;44.536;18.664;2023-04-25T00:38:41;15.30;99.90
52765;DHT22;38650;44.536;18.664;2023-04-25T00:41:06;15.30;99.90
52765;DHT22;38650;44.536;18.664;2023-04-25T00:43:32;15.30;99.90
52765;DHT22;38650;44.536;18.664;2023-04-25T00:45:59;15.30;99.90
52765;DHT22;38650;44.536;18.664;2023-04-25T00:48:25;15.30;99.90
52765;DHT22;38650;44.536;18.664;2023-04-25T00:50:55;15.40;99.90
52765;DHT22;38650;44.536;18.664;2023-04-25T00:53:20;15.40;99.90
52765;DHT22;38650;44.536;18.664;2023-04-25T00:55:46;15.40;99.90
52765;DHT22;38650;44.536;18.664;2023-04-25T00:58:12;15.40;99.90
52765;DHT22;38650;44.536;18.664;2023-04-25T01:00:38;15.30;99.90
52765;DHT22;38650;44.536;18.664;2023-04-25T01:03:04;15.30;99.90
52765;DHT22;38650;44.536;18.664;2023-04-25T01:05:29;15.30;99.90
52765;DHT22;38650;44.536;18.664;2023-04-25T01:07:55;15.30;99.90
52765;DHT22;38650;44.536;18.664;2023-04-25T01:10:21;15.30;99.90
52765;DHT22;38650;44.536;18.664;2023-04-25T01:12:46;15.30;99.90
52765;DHT22;38650;44.536;18.664;2023-04-25T01:15:12;15.30;99.90
52765;DHT22;38650;44.536;18.664;2023-04-25T01:17:38;15.30;99.90
52765;DHT22;38650;44.536;18.664;2023-04-25T01:20:04;15.20;99.90
52765;DHT22;38650;44.536;18.664;2023-04-25T01:22:31;15.20;99.90
52765;DHT22;38650;44.536;18.664;2023-04-25T01:24:56;15.20;99.90
52765;DHT22;38650;44.536;18.664;2023-04-25T01:27:22;15.30;99.90
52765;DHT22;38650;44.536;18.664;2023-04-25T01:29:48;15.10;99.90
52765;DHT22;38650;44.536;18.664;2023-04-25T01:32:14;14.80;99.90
52765;DHT22;38650;44.536;18.664;2023-04-25T01:34:40;14.70;99.90
52765;DHT22;38650;44.536;18.664;2023-04-25T01:37:05;14.90;99.90
52765;DHT22;38650;44.536;18.664;2023-04-25T01:39:31;14.80;99.90
52765;DHT22;38650;44.536;18.664;2023-04-25T01:41:58;14.80;99.90
52765;DHT22;38650;44.536;18.664;2023-04-25T01:44:24;14.90;99.90
52765;DHT22;38650;44.536;18.664;2023-04-25T01:46:49;14.80;99.90
52765;DHT22;38650;44.536;18.664;2023-04-25T01:49:15;14.90;99.90
52765;DHT22;38650;44.536;18.664;2023-04-25T01:51:41;14.90;99.90
52765;DHT22;38650;44.536;18.664;2023-04-25T01:54:07;15.00;99.90
52765;DHT22;38650;44.536;18.664;2023-04-25T01:56:32;15.00;99.90
52765;DHT22;38650;44.536;18.664;2023-04-25T01:58:58;14.80;99.90
52765;DHT22;38650;44.536;18.664;2023-04-25T02:01:24;14.70;99.90
52765;DHT22;38650;44.536;18.664;2023-04-25T02:03:50;14.50;99.90
52765;DHT22;38650;44.536;18.664;2023-04-25T02:06:16;14.20;99.90
52765;DHT22;38650;44.536;18.664;2023-04-25T02:08:41;14.10;99.90
52765;DHT22;38650;44.536;18.664;2023-04-25T02:11:07;14.00;99.90
52765;DHT22;38650;44.536;18.664;2023-04-25T02:13:32;13.90;99.90
52765;DHT22;38650;44.536;18.664;2023-04-25T02:15:58;13.90;99.90
52765;DHT22;38650;44.536;18.664;2023-04-25T02:18:23;13.90;99.90
52765;DHT22;38650;44.536;18.664;2023-04-25T02:20:49;14.00;99.90
52765;DHT22;38650;44.536;18.664;2023-04-25T02:23:14;13.90;99.90
52765;DHT22;38650;44.536;18.664;2023-04-25T02:25:44;13.90;99.90
52765;DHT22;38650;44.536;18.664;2023-04-25T02:28:10;13.70;99.90
52765;DHT22;38650;44.536;18.664;2023-04-25T02:30:35;13.80;99.90
52765;DHT22;38650;44.536;18.664;2023-04-25T02:33:01;13.70;99.90
52765;DHT22;38650;44.536;18.664;2023-04-25T02:35:27;13.50;99.90
52765;DHT22;38650;44.536;18.664;2023-04-25T02:37:52;13.40;99.90
52765;DHT22;38650;44.536;18.664;2023-04-25T02:40:18;13.50;99.90
52765;DHT22;38650;44.536;18.664;2023-04-25T02:42:43;13.40;99.90
52765;DHT22;38650;44.536;18.664;2023-04-25T02:45:11;13.30;99.90
52765;DHT22;38650;44.536;18.664;2023-04-25T02:47:36;13.10;99.90
52765;DHT22;38650;44.536;18.664;2023-04-25T02:50:02;13.00;99.90
52765;DHT22;38650;44.536;18.664;2023-04-25T02:52:28;13.00;99.90
52765;DHT22;38650;44.536;18.664;2023-04-25T02:54:53;13.00;99.90
52765;DHT22;38650;44.536;18.664;2023-04-25T02:57:19;13.00;99.90
52765;DHT22;38650;44.536;18.664;2023-04-25T02:59:44;13.00;99.90
52765;DHT22;38650;44.536;18.664;2023-04-25T03:02:10;13.10;99.90
52765;DHT22;38650;44.536;18.664;2023-04-25T03:04:36;13.00;99.90
52765;DHT22;38650;44.536;18.664;2023-04-25T03:07:01;13.00;99.90
52765;DHT22;38650;44.536;18.664;2023-04-25T03:09:27;13.10;99.90
52765;DHT22;38650;44.536;18.664;2023-04-25T03:11:52;13.20;99.90
52765;DHT22;38650;44.536;18.664;2023-04-25T03:14:18;13.10;99.90
52765;DHT22;38650;44.536;18.664;2023-04-25T03:16:43;13.00;99.90
52765;DHT22;38650;44.536;18.664;2023-04-25T03:19:09;12.80;99.90
52765;DHT22;38650;44.536;18.664;2023-04-25T03:21:35;12.90;99.90
52765;DHT22;38650;44.536;18.664;2023-04-25T03:24:01;12.90;99.90
52765;DHT22;38650;44.536;18.664;2023-04-25T03:26:27;12.90;99.90
52765;DHT22;38650;44.536;18.664;2023-04-25T03:28:53;13.00;99.90
52765;DHT22;38650;44.536;18.664;2023-04-25T03:31:19;13.20;99.90
52765;DHT22;38650;44.536;18.664;2023-04-25T03:33:44;13.30;99.90
52765;DHT22;38650;44.536;18.664;2023-04-25T03:36:10;13.30;99.90
52765;DHT22;38650;44.536;18.664;2023-04-25T03:38:36;13.10;99.90
52765;DHT22;38650;44.536;18.664;2023-04-25T03:41:01;13.00;99.90
52765;DHT22;38650;44.536;18.664;2023-04-25T03:43:27;13.00;99.90
52765;DHT22;38650;44.536;18.664;2023-04-25T03:45:52;12.90;99.90
52765;DHT22;38650;44.536;18.664;2023-04-25T03:48:18;12.90;99.90
52765;DHT22;38650;44.536;18.664;2023-04-25T03:50:46;12.90;99.90
52765;DHT22;38650;44.536;18.664;2023-04-25T03:53:12;12.90;99.90
52765;DHT22;38650;44.536;18.664;2023-04-25T03:55:38;12.90;99.90
52765;DHT22;38650;44.536;18.664;2023-04-25T03:58:03;12.70;99.90
52765;DHT22;38650;44.536;18.664;2023-04-25T04:00:29;12.70;99.90
52765;DHT22;38650;44.536;18.664;2023-04-25T04:02:54;12.70;99.90
52765;DHT22;38650;44.536;18.664;2023-04-25T04:05:20;12.60;99.90
52765;DHT22;38650;44.536;18.664;2023-04-25T04:07:46;12.70;99.90
52765;DHT22;38650;44.536;18.664;2023-04-25T04:10:12;12.80;99.90
52765;DHT22;38650;44.536;18.664;2023-04-25T04:12:37;12.90;99.90
52765;DHT22;38650;44.536;18.664;2023-04-25T04:15:04;13.00;99.90
52765;DHT22;38650;44.536;18.664;2023-04-25T04:17:30;13.10;99.90
52765;DHT22;38650;44.536;18.664;2023-04-25T04:19:56;13.10;99.90
52765;DHT22;38650;44.536;18.664;2023-04-25T04:22:22;13.10;99.90
52765;DHT22;38650;44.536;18.664;2023-04-25T04:24:47;13.10;99.90
52765;DHT22;38650;44.536;18.664;2023-04-25T04:27:15;13.00;99.90
52765;DHT22;38650;44.536;18.664;2023-04-25T04:29:42;13.10;99.90
52765;DHT22;38650;44.536;18.664;2023-04-25T04:32:08;13.10;99.90
52765;DHT22;38650;44.536;18.664;2023-04-25T04:34:34;13.10;99.90
52765;DHT22;38650;44.536;18.664;2023-04-25T04:37:00;12.90;99.90
52765;DHT22;38650;44.536;18.664;2023-04-25T04:39:25;12.90;99.90
52765;DHT22;38650;44.536;18.664;2023-04-25T04:41:51;12.90;99.90
52765;DHT22;38650;44.536;18.664;2023-04-25T04:44:16;12.90;99.90
52765;DHT22;38650;44.536;18.664;2023-04-25T04:46:42;12.80;99.90
52765;DHT22;38650;44.536;18.664;2023-04-25T04:49:09;12.80;99.90
52765;DHT22;38650;44.536;18.664;2023-04-25T04:51:35;12.90;99.90
52765;DHT22;38650;44.536;18.664;2023-04-25T04:54:02;13.00;99.90
52765;DHT22;38650;44.536;18.664;2023-04-25T04:56:28;12.90;99.90
52765;DHT22;38650;44.536;18.664;2023-04-25T04:58:54;13.00;99.90
52765;DHT22;38650;44.536;18.664;2023-04-25T05:01:20;13.00;99.90
52765;DHT22;38650;44.536;18.664;2023-04-25T05:03:45;13.10;99.90
52765;DHT22;38650;44.536;18.664;2023-04-25T05:06:11;13.10;99.90
52765;DHT22;38650;44.536;18.664;2023-04-25T05:08:37;13.10;99.90
52765;DHT22;38650;44.536;18.664;2023-04-25T05:11:02;13.20;99.90
52765;DHT22;38650;44.536;18.664;2023-04-25T05:13:28;13.20;99.90
52765;DHT22;38650;44.536;18.664;2023-04-25T05:15:53;13.20;99.90
52765;DHT22;38650;44.536;18.664;2023-04-25T05:18:19;13.20;99.90
52765;DHT22;38650;44.536;18.664;2023-04-25T05:20:44;13.20;99.90
52765;DHT22;38650;44.536;18.664;2023-04-25T05:23:10;13.20;99.90
52765;DHT22;38650;44.536;18.664;2023-04-25T05:25:36;13.20;99.90
52765;DHT22;38650;44.536;18.664;2023-04-25T05:28:01;13.20;99.90
52765;DHT22;38650;44.536;18.664;2023-04-25T05:30:27;13.20;99.90
52765;DHT22;38650;44.536;18.664;2023-04-25T05:32:52;13.10;99.90
52765;DHT22;38650;44.536;18.664;2023-04-25T05:35:18;13.10;99.90
52765;DHT22;38650;44.536;18.664;2023-04-25T05:37:43;13.20;99.90
52765;DHT22;38650;44.536;18.664;2023-04-25T05:40:09;13.30;99.90
52765;DHT22;38650;44.536;18.664;2023-04-25T05:42:35;13.40;99.90
52765;DHT22;38650;44.536;18.664;2023-04-25T05:45:00;13.50;99.90
52765;DHT22;38650;44.536;18.664;2023-04-25T05:47:26;13.60;99.90
52765;DHT22;38650;44.536;18.664;2023-04-25T05:49:52;13.50;99.90
52765;DHT22;38650;44.536;18.664;2023-04-25T05:52:18;13.60;99.90
52765;DHT22;38650;44.536;18.664;2023-04-25T05:54:43;13.60;99.90
52765;DHT22;38650;44.536;18.664;2023-04-25T05:57:17;13.60;99.90
52765;DHT22;38650;44.536;18.664;2023-04-25T05:59:43;13.70;99.90
52765;DHT22;38650;44.536;18.664;2023-04-25T06:02:08;13.80;99.90
52765;DHT22;38650;44.536;18.664;2023-04-25T06:04:34;13.90;99.90
52765;DHT22;38650;44.536;18.664;2023-04-25T06:07:00;14.00;99.90
52765;DHT22;38650;44.536;18.664;2023-04-25T06:09:25;14.00;99.90
52765;DHT22;38650;44.536;18.664;2023-04-25T06:11:51;14.00;99.90
52765;DHT22;38650;44.536;18.664;2023-04-25T06:14:16;14.00;99.90
52765;DHT22;38650;44.536;18.664;2023-04-25T06:16:42;13.90;99.90
52765;DHT22;38650;44.536;18.664;2023-04-25T06:19:07;13.90;99.90
52765;DHT22;38650;44.536;18.664;2023-04-25T06:21:33;14.10;99.90
52765;DHT22;38650;44.536;18.664;2023-04-25T06:23:59;14.20;99.90
52765;DHT22;38650;44.536;18.664;2023-04-25T06:26:24;14.10;99.90
52765;DHT22;38650;44.536;18.664;2023-04-25T06:28:50;14.00;99.90
52765;DHT22;38650;44.536;18.664;2023-04-25T06:31:15;13.90;99.90
52765;DHT22;38650;44.536;18.664;2023-04-25T06:33:41;13.90;99.90
52765;DHT22;38650;44.536;18.664;2023-04-25T06:36:06;13.90;99.90
52765;DHT22;38650;44.536;18.664;2023-04-25T06:38:32;13.90;99.90
52765;DHT22;38650;44.536;18.664;2023-04-25T06:40:58;13.90;99.90
52765;DHT22;38650;44.536;18.664;2023-04-25T06:43:24;13.90;99.90
52765;DHT22;38650;44.536;18.664;2023-04-25T06:45:50;14.10;99.90
52765;DHT22;38650;44.536;18.664;2023-04-25T06:48:15;14.20;99.90
52765;DHT22;38650;44.536;18.664;2023-04-25T06:50:41;14.30;99.90
52765;DHT22;38650;44.536;18.664;2023-04-25T06:53:07;14.40;99.90
52765;DHT22;38650;44.536;18.664;2023-04-25T06:55:34;14.50;99.90
52765;DHT22;38650;44.536;18.664;2023-04-25T06:58:00;14.60;99.90
52765;DHT22;38650;44.536;18.664;2023-04-25T07:00:25;14.80;99.90
52765;DHT22;38650;44.536;18.664;2023-04-25T07:02:51;14.90;99.90
52765;DHT22;38650;44.536;18.664;2023-04-25T07:05:17;15.00;99.90
52765;DHT22;38650;44.536;18.664;2023-04-25T07:07:42;15.00;99.90
52765;DHT22;38650;44.536;18.664;2023-04-25T07:10:08;15.10;99.90
52765;DHT22;38650;44.536;18.664;2023-04-25T07:12:33;15.30;99.90
52765;DHT22;38650;44.536;18.664;2023-04-25T07:14:59;15.50;99.90
52765;DHT22;38650;44.536;18.664;2023-04-25T07:17:31;15.60;99.90
52765;DHT22;38650;44.536;18.664;2023-04-25T07:19:56;15.70;99.90
52765;DHT22;38650;44.536;18.664;2023-04-25T07:22:22;15.70;99.90
52765;DHT22;38650;44.536;18.664;2023-04-25T07:24:47;15.90;99.90
52765;DHT22;38650;44.536;18.664;2023-04-25T07:27:14;16.20;99.90
52765;DHT22;38650;44.536;18.664;2023-04-25T07:29:39;16.50;99.90
52765;DHT22;38650;44.536;18.664;2023-04-25T07:32:05;18.20;99.90
52765;DHT22;38650;44.536;18.664;2023-04-25T07:34:31;18.10;99.90
52765;DHT22;38650;44.536;18.664;2023-04-25T07:36:57;17.90;99.70
52765;DHT22;38650;44.536;18.664;2023-04-25T07:39:24;17.60;96.30
52765;DHT22;38650;44.536;18.664;2023-04-25T07:41:50;17.20;99.60
52765;DHT22;38650;44.536;18.664;2023-04-25T07:44:16;17.00;99.90
52765;DHT22;38650;44.536;18.664;2023-04-25T07:46:41;17.10;99.90
52765;DHT22;38650;44.536;18.664;2023-04-25T07:49:07;17.30;99.90
52765;DHT22;38650;44.536;18.664;2023-04-25T07:51:33;17.30;99.90
52765;DHT22;38650;44.536;18.664;2023-04-25T07:53:58;17.00;99.90
52765;DHT22;38650;44.536;18.664;2023-04-25T07:56:24;16.70;99.90
52765;DHT22;38650;44.536;18.664;2023-04-25T07:58:50;16.40;99.90
52765;DHT22;38650;44.536;18.664;2023-04-25T08:01:16;16.20;99.90
52765;DHT22;38650;44.536;18.664;2023-04-25T08:03:42;16.10;99.90
52765;DHT22;38650;44.536;18.664;2023-04-25T08:06:07;16.10;99.90
52765;DHT22;38650;44.536;18.664;2023-04-25T08:08:33;16.10;99.90
52765;DHT22;38650;44.536;18.664;2023-04-25T08:10:59;16.50;99.90
52765;DHT22;38650;44.536;18.664;2023-04-25T08:13:24;17.40;99.40
52765;DHT22;38650;44.536;18.664;2023-04-25T08:15:50;18.40;98.80
52765;DHT22;38650;44.536;18.664;2023-04-25T08:18:15;18.60;95.20
52765;DHT22;38650;44.536;18.664;2023-04-25T08:20:41;18.50;93.70
52765;DHT22;38650;44.536;18.664;2023-04-25T08:23:07;18.10;91.30
52765;DHT22;38650;44.536;18.664;2023-04-25T08:25:32;17.80;94.30
52765;DHT22;38650;44.536;18.664;2023-04-25T08:27:58;17.80;99.60
52765;DHT22;38650;44.536;18.664;2023-04-25T08:30:28;17.90;96.20
52765;DHT22;38650;44.536;18.664;2023-04-25T08:32:54;17.90;87.20
52765;DHT22;38650;44.536;18.664;2023-04-25T08:35:24;18.10;91.90
52765;DHT22;38650;44.536;18.664;2023-04-25T08:38:00;18.20;81.50
52765;DHT22;38650;44.536;18.664;2023-04-25T08:40:43;18.10;77.20
52765;DHT22;38650;44.536;18.664;2023-04-25T08:43:13;18.00;81.80
52765;DHT22;38650;44.536;18.664;2023-04-25T08:45:46;17.80;83.00
52765;DHT22;38650;44.536;18.664;2023-04-25T08:48:17;17.70;91.10
52765;DHT22;38650;44.536;18.664;2023-04-25T08:50:51;18.00;78.90
52765;DHT22;38650;44.536;18.664;2023-04-25T08:53:22;17.80;84.90
52765;DHT22;38650;44.536;18.664;2023-04-25T08:55:56;17.70;81.50
52765;DHT22;38650;44.536;18.664;2023-04-25T08:58:25;17.70;88.10
52765;DHT22;38650;44.536;18.664;2023-04-25T09:00:58;17.60;81.70
52765;DHT22;38650;44.536;18.664;2023-04-25T09:03:25;17.70;81.10
52765;DHT22;38650;44.536;18.664;2023-04-25T09:05:56;17.50;78.70
52765;DHT22;38650;44.536;18.664;2023-04-25T09:08:28;17.40;83.80
52765;DHT22;38650;44.536;18.664;2023-04-25T09:11:04;17.10;77.40
52765;DHT22;38650;44.536;18.664;2023-04-25T09:13:33;17.00;80.10
52765;DHT22;38650;44.536;18.664;2023-04-25T09:16:04;16.90;87.70
52765;DHT22;38650;44.536;18.664;2023-04-25T09:18:33;18.10;78.90
52765;DHT22;38650;44.536;18.664;2023-04-25T09:21:11;18.90;63.90
52765;DHT22;38650;44.536;18.664;2023-04-25T09:23:46;18.50;64.30
52765;DHT22;38650;44.536;18.664;2023-04-25T09:26:16;18.30;62.60
52765;DHT22;38650;44.536;18.664;2023-04-25T09:28:44;18.30;61.00
52765;DHT22;38650;44.536;18.664;2023-04-25T09:31:11;17.90;67.20
52765;DHT22;38650;44.536;18.664;2023-04-25T09:33:41;17.60;62.10
52765;DHT22;38650;44.536;18.664;2023-04-25T09:36:14;17.40;64.80
52765;DHT22;38650;44.536;18.664;2023-04-25T09:38:44;17.30;70.30
52765;DHT22;38650;44.536;18.664;2023-04-25T09:41:15;17.40;82.60
52765;DHT22;38650;44.536;18.664;2023-04-25T09:43:48;17.90;72.40
52765;DHT22;38650;44.536;18.664;2023-04-25T09:46:14;18.00;66.40
52765;DHT22;38650;44.536;18.664;2023-04-25T09:48:40;18.50;70.30
52765;DHT22;38650;44.536;18.664;2023-04-25T09:51:13;19.40;65.60
52765;DHT22;38650;44.536;18.664;2023-04-25T09:53:42;19.70;62.00
52765;DHT22;38650;44.536;18.664;2023-04-25T09:56:10;19.70;55.30
52765;DHT22;38650;44.536;18.664;2023-04-25T09:58:36;19.70;56.20
52765;DHT22;38650;44.536;18.664;2023-04-25T10:01:06;19.50;53.10
52765;DHT22;38650;44.536;18.664;2023-04-25T10:03:32;19.40;56.80
52765;DHT22;38650;44.536;18.664;2023-04-25T10:06:02;19.00;54.90
52765;DHT22;38650;44.536;18.664;2023-04-25T10:08:32;18.90;55.30
52765;DHT22;38650;44.536;18.664;2023-04-25T10:10:59;18.90;59.60
52765;DHT22;38650;44.536;18.664;2023-04-25T10:13:25;18.70;58.50
52765;DHT22;38650;44.536;18.664;2023-04-25T10:15:51;18.70;57.50
52765;DHT22;38650;44.536;18.664;2023-04-25T10:18:17;19.00;56.40
52765;DHT22;38650;44.536;18.664;2023-04-25T10:20:45;19.20;55.90
52765;DHT22;38650;44.536;18.664;2023-04-25T10:23:12;19.40;55.70
52765;DHT22;38650;44.536;18.664;2023-04-25T10:25:38;20.10;55.20
52765;DHT22;38650;44.536;18.664;2023-04-25T10:28:12;21.50;49.90
52765;DHT22;38650;44.536;18.664;2023-04-25T10:30:56;22.50;49.90
52765;DHT22;38650;44.536;18.664;2023-04-25T10:33:28;22.50;48.90
52765;DHT22;38650;44.536;18.664;2023-04-25T10:35:57;21.90;46.90
52765;DHT22;38650;44.536;18.664;2023-04-25T10:38:23;21.70;48.40
52765;DHT22;38650;44.536;18.664;2023-04-25T10:41:05;21.70;47.30
52765;DHT22;38650;44.536;18.664;2023-04-25T10:43:35;21.50;49.30
52765;DHT22;38650;44.536;18.664;2023-04-25T10:46:23;21.20;50.80
52765;DHT22;38650;44.536;18.664;2023-04-25T10:48:50;20.90;49.60
52765;DHT22;38650;44.536;18.664;2023-04-25T10:51:20;20.50;48.90
52765;DHT22;38650;44.536;18.664;2023-04-25T10:53:46;20.30;48.80
52765;DHT22;38650;44.536;18.664;2023-04-25T10:56:22;20.20;50.10
52765;DHT22;38650;44.536;18.664;2023-04-25T10:58:48;20.10;48.40
52765;DHT22;38650;44.536;18.664;2023-04-25T11:01:14;19.90;51.20
52765;DHT22;38650;44.536;18.664;2023-04-25T11:03:41;19.70;50.00
52765;DHT22;38650;44.536;18.664;2023-04-25T11:06:10;19.80;48.80
52765;DHT22;38650;44.536;18.664;2023-04-25T11:08:47;19.60;50.00
52765;DHT22;38650;44.536;18.664;2023-04-25T11:11:14;19.60;48.90
52765;DHT22;38650;44.536;18.664;2023-04-25T11:13:40;19.50;50.20
52765;DHT22;38650;44.536;18.664;2023-04-25T11:16:09;19.50;49.40
52765;DHT22;38650;44.536;18.664;2023-04-25T11:18:34;19.50;48.80
52765;DHT22;38650;44.536;18.664;2023-04-25T11:21:00;19.70;50.00
52765;DHT22;38650;44.536;18.664;2023-04-25T11:23:26;19.90;52.20
52765;DHT22;38650;44.536;18.664;2023-04-25T11:25:54;20.50;50.00
52765;DHT22;38650;44.536;18.664;2023-04-25T11:28:21;21.10;48.30
52765;DHT22;38650;44.536;18.664;2023-04-25T11:30:48;21.80;46.40
52765;DHT22;38650;44.536;18.664;2023-04-25T11:33:15;22.00;42.70
52765;DHT22;38650;44.536;18.664;2023-04-25T11:35:41;22.20;44.70
52765;DHT22;38650;44.536;18.664;2023-04-25T11:38:06;22.00;44.30
52765;DHT22;38650;44.536;18.664;2023-04-25T11:40:32;21.90;42.20
52765;DHT22;38650;44.536;18.664;2023-04-25T11:42:59;21.50;43.40
52765;DHT22;38650;44.536;18.664;2023-04-25T11:45:25;21.40;44.40
52765;DHT22;38650;44.536;18.664;2023-04-25T11:47:51;21.40;42.20
52765;DHT22;38650;44.536;18.664;2023-04-25T11:50:17;21.10;44.30
52765;DHT22;38650;44.536;18.664;2023-04-25T11:52:43;21.00;43.40
52765;DHT22;38650;44.536;18.664;2023-04-25T11:55:09;21.00;45.50
52765;DHT22;38650;44.536;18.664;2023-04-25T11:57:37;21.10;43.40
52765;DHT22;38650;44.536;18.664;2023-04-25T12:00:13;21.00;45.80
52765;DHT22;38650;44.536;18.664;2023-04-25T12:02:46;20.90;47.20
52765;DHT22;38650;44.536;18.664;2023-04-25T12:05:12;20.80;45.00
52765;DHT22;38650;44.536;18.664;2023-04-25T12:07:38;20.50;45.10
52765;DHT22;38650;44.536;18.664;2023-04-25T12:10:07;20.40;44.90
52765;DHT22;38650;44.536;18.664;2023-04-25T12:12:34;20.20;47.10
52765;DHT22;38650;44.536;18.664;2023-04-25T12:18:03;20.00;49.80
52765;DHT22;38650;44.536;18.664;2023-04-25T12:20:52;20.00;50.80
52765;DHT22;38650;44.536;18.664;2023-04-25T12:23:59;19.90;49.30
52765;DHT22;38650;44.536;18.664;2023-04-25T12:29:49;20.10;52.70
52765;DHT22;38650;44.536;18.664;2023-04-25T12:32:16;20.20;51.40
52765;DHT22;38650;44.536;18.664;2023-04-25T12:34:42;20.70;50.30
52765;DHT22;38650;44.536;18.664;2023-04-25T12:37:09;21.00;47.50
52765;DHT22;38650;44.536;18.664;2023-04-25T12:39:34;21.20;48.10
52765;DHT22;38650;44.536;18.664;2023-04-25T12:42:00;21.60;49.80
52765;DHT22;38650;44.536;18.664;2023-04-25T12:44:26;22.20;46.90
52765;DHT22;38650;44.536;18.664;2023-04-25T12:46:51;22.30;44.40
52765;DHT22;38650;44.536;18.664;2023-04-25T12:49:17;22.50;44.70
52765;DHT22;38650;44.536;18.664;2023-04-25T12:51:43;22.70;44.40
52765;DHT22;38650;44.536;18.664;2023-04-25T12:54:08;22.70;46.20
52765;DHT22;38650;44.536;18.664;2023-04-25T12:56:34;22.50;43.70
52765;DHT22;38650;44.536;18.664;2023-04-25T12:59:00;22.20;43.40
52765;DHT22;38650;44.536;18.664;2023-04-25T13:01:26;21.60;43.90
52765;DHT22;38650;44.536;18.664;2023-04-25T13:03:51;21.30;45.60
52765;DHT22;38650;44.536;18.664;2023-04-25T13:06:17;21.60;45.60
52765;DHT22;38650;44.536;18.664;2023-04-25T13:08:43;21.90;45.70
52765;DHT22;38650;44.536;18.664;2023-04-25T13:11:09;22.00;42.00
52765;DHT22;38650;44.536;18.664;2023-04-25T13:13:35;22.10;43.00
52765;DHT22;38650;44.536;18.664;2023-04-25T13:16:01;22.20;44.10
52765;DHT22;38650;44.536;18.664;2023-04-25T13:18:27;22.20;42.90
52765;DHT22;38650;44.536;18.664;2023-04-25T13:20:53;22.40;46.70
52765;DHT22;38650;44.536;18.664;2023-04-25T13:23:19;22.60;47.70
52765;DHT22;38650;44.536;18.664;2023-04-25T13:25:45;22.50;44.90
52765;DHT22;38650;44.536;18.664;2023-04-25T13:28:11;22.40;43.40
52765;DHT22;38650;44.536;18.664;2023-04-25T13:30:36;22.60;45.00
52765;DHT22;38650;44.536;18.664;2023-04-25T13:33:02;22.70;44.00
52765;DHT22;38650;44.536;18.664;2023-04-25T13:35:29;22.70;42.10
52765;DHT22;38650;44.536;18.664;2023-04-25T13:37:55;22.50;41.10
52765;DHT22;38650;44.536;18.664;2023-04-25T13:40:20;22.20;41.60
52765;DHT22;38650;44.536;18.664;2023-04-25T13:42:46;22.20;43.00
52765;DHT22;38650;44.536;18.664;2023-04-25T13:45:12;22.30;42.10
52765;DHT22;38650;44.536;18.664;2023-04-25T13:47:37;22.50;41.00
52765;DHT22;38650;44.536;18.664;2023-04-25T13:50:03;22.20;43.20
52765;DHT22;38650;44.536;18.664;2023-04-25T13:52:30;22.20;42.20
52765;DHT22;38650;44.536;18.664;2023-04-25T13:54:55;22.20;42.20
52765;DHT22;38650;44.536;18.664;2023-04-25T13:57:21;22.70;42.80
52765;DHT22;38650;44.536;18.664;2023-04-25T13:59:47;23.00;42.00
52765;DHT22;38650;44.536;18.664;2023-04-25T14:02:12;23.40;43.40
52765;DHT22;38650;44.536;18.664;2023-04-25T14:04:38;23.50;39.30
52765;DHT22;38650;44.536;18.664;2023-04-25T14:07:03;23.20;40.20
52765;DHT22;38650;44.536;18.664;2023-04-25T14:09:30;23.60;40.60
52765;DHT22;38650;44.536;18.664;2023-04-25T14:11:55;24.00;39.30
52765;DHT22;38650;44.536;18.664;2023-04-25T14:14:21;24.20;40.70
52765;DHT22;38650;44.536;18.664;2023-04-25T14:16:48;24.60;37.70
52765;DHT22;38650;44.536;18.664;2023-04-25T14:19:14;24.70;37.20
52765;DHT22;38650;44.536;18.664;2023-04-25T14:21:39;24.90;37.40
52765;DHT22;38650;44.536;18.664;2023-04-25T14:24:05;24.90;36.40
52765;DHT22;38650;44.536;18.664;2023-04-25T14:26:30;24.60;36.70
52765;DHT22;38650;44.536;18.664;2023-04-25T14:28:56;24.70;38.80
52765;DHT22;38650;44.536;18.664;2023-04-25T14:31:22;24.70;41.50
52765;DHT22;38650;44.536;18.664;2023-04-25T14:33:47;25.00;37.30
52765;DHT22;38650;44.536;18.664;2023-04-25T14:36:13;24.90;38.10
52765;DHT22;38650;44.536;18.664;2023-04-25T14:38:39;24.60;39.20
52765;DHT22;38650;44.536;18.664;2023-04-25T14:41:05;24.70;37.60
52765;DHT22;38650;44.536;18.664;2023-04-25T14:43:31;25.00;38.10
52765;DHT22;38650;44.536;18.664;2023-04-25T14:45:56;25.20;37.30
52765;DHT22;38650;44.536;18.664;2023-04-25T14:48:22;25.60;37.10
52765;DHT22;38650;44.536;18.664;2023-04-25T14:50:48;25.80;35.60
52765;DHT22;38650;44.536;18.664;2023-04-25T14:53:14;25.40;35.90
52765;DHT22;38650;44.536;18.664;2023-04-25T14:55:40;25.30;37.50
52765;DHT22;38650;44.536;18.664;2023-04-25T14:58:05;25.30;37.70
52765;DHT22;38650;44.536;18.664;2023-04-25T15:00:32;25.40;40.20
52765;DHT22;38650;44.536;18.664;2023-04-25T15:02:58;25.00;39.10
52765;DHT22;38650;44.536;18.664;2023-04-25T15:05:24;24.80;39.30
52765;DHT22;38650;44.536;18.664;2023-04-25T15:07:49;24.40;40.60
52765;DHT22;38650;44.536;18.664;2023-04-25T15:10:16;24.70;40.50
52765;DHT22;38650;44.536;18.664;2023-04-25T15:12:42;25.00;41.40
52765;DHT22;38650;44.536;18.664;2023-04-25T15:15:08;25.30;41.10
52765;DHT22;38650;44.536;18.664;2023-04-25T15:17:43;25.50;41.20
52765;DHT22;38650;44.536;18.664;2023-04-25T15:20:09;25.60;40.10